createdAt,value
2022-11-30T00:01:08.788Z,3.90
2022-11-30T00:03:37.186Z,3.91
2022-11-30T00:06:09.462Z,3.95
2022-11-30T00:08:36.495Z,3.95
2022-11-30T00:11:29.840Z,3.97
2022-11-30T00:13:58.996Z,4.00
2022-11-30T00:16:27.285Z,4.03
2022-11-30T00:18:54.238Z,4.07
2022-11-30T00:21:20.979Z,4.12
2022-11-30T00:23:48.547Z,4.04
2022-11-30T00:26:18.021Z,3.96
2022-11-30T00:28:46.142Z,3.88
2022-11-30T00:31:15.323Z,3.85
2022-11-30T00:33:42.627Z,3.86
2022-11-30T00:36:15.877Z,3.88
2022-11-30T00:38:43.271Z,3.85
2022-11-30T00:41:10.256Z,3.87
2022-11-30T00:43:37.140Z,3.87
2022-11-30T00:46:04.020Z,3.93
2022-11-30T00:48:30.822Z,3.92
2022-11-30T00:50:57.849Z,3.87
2022-11-30T00:53:24.572Z,3.80
2022-11-30T00:55:51.279Z,3.77
2022-11-30T00:58:18.146Z,3.67
2022-11-30T01:00:45.237Z,3.59
2022-11-30T01:03:12.613Z,3.59
2022-11-30T01:05:39.872Z,3.58
2022-11-30T01:08:09.453Z,3.63
2022-11-30T01:10:38.336Z,3.58
2022-11-30T01:13:05.768Z,3.59
2022-11-30T01:15:40.245Z,3.56
2022-11-30T01:18:07.163Z,3.57
2022-11-30T01:20:34.157Z,3.49
2022-11-30T01:23:00.852Z,3.44
2022-11-30T01:25:27.563Z,3.40
2022-11-30T01:27:54.279Z,3.44
2022-11-30T01:30:21.025Z,3.43
2022-11-30T01:32:47.863Z,3.54
2022-11-30T01:35:14.766Z,3.57
2022-11-30T01:37:41.524Z,3.56
2022-11-30T01:40:08.940Z,3.61
2022-11-30T01:42:37.919Z,3.68
2022-11-30T01:45:06.780Z,3.79
2022-11-30T01:47:39.225Z,3.85
2022-11-30T01:50:10.939Z,4.01
2022-11-30T01:52:43.592Z,4.07
2022-11-30T01:55:18.881Z,4.08
2022-11-30T01:57:52.554Z,4.05
2022-11-30T02:00:20.160Z,4.05
2022-11-30T02:02:55.170Z,4.06
2022-11-30T02:05:25.947Z,4.01
2022-11-30T02:07:54.843Z,3.94
2022-11-30T02:10:26.937Z,3.91
2022-11-30T02:13:05.845Z,3.81
2022-11-30T02:15:48.974Z,3.83
2022-11-30T02:18:31.053Z,3.84
2022-11-30T02:21:00.456Z,3.90
2022-11-30T02:24:14.410Z,3.98
2022-11-30T02:26:47.220Z,4.22
2022-11-30T02:29:29.876Z,4.31
2022-11-30T02:32:12.293Z,4.43
2022-11-30T02:34:42.203Z,4.56
2022-11-30T02:37:11.540Z,4.54
2022-11-30T02:39:38.322Z,4.54
2022-11-30T02:42:10.806Z,4.60
2022-11-30T02:44:37.684Z,4.59
2022-11-30T02:47:16.630Z,4.57
2022-11-30T02:49:51.820Z,4.61
2022-11-30T02:52:22.226Z,4.59
2022-11-30T02:54:49.295Z,4.56
2022-11-30T02:57:16.178Z,4.56
2022-11-30T02:59:43.055Z,4.54
2022-11-30T03:02:09.944Z,4.53
2022-11-30T03:04:36.656Z,4.61
2022-11-30T03:07:03.602Z,4.56
2022-11-30T03:09:30.320Z,4.54
2022-11-30T03:11:57.080Z,4.54
2022-11-30T03:14:23.867Z,4.56
2022-11-30T03:16:50.586Z,4.50
2022-11-30T03:19:17.349Z,4.52
2022-11-30T03:21:44.078Z,4.61
2022-11-30T03:24:10.723Z,4.57
2022-11-30T03:26:37.457Z,4.53
2022-11-30T03:29:04.146Z,4.57
2022-11-30T03:31:30.869Z,4.49
2022-11-30T03:33:57.558Z,4.50
2022-11-30T03:36:24.317Z,4.45
2022-11-30T03:38:50.957Z,4.46
2022-11-30T03:41:18.161Z,4.47
2022-11-30T03:43:46.039Z,4.46
2022-11-30T03:46:13.336Z,4.49
2022-11-30T03:48:43.108Z,4.52
2022-11-30T03:51:11.060Z,4.66
2022-11-30T03:53:54.571Z,4.69
2022-11-30T03:56:21.661Z,4.58
2022-11-30T03:58:48.367Z,4.59
2022-11-30T04:01:17.885Z,4.73
2022-11-30T04:03:45.150Z,4.56
2022-11-30T04:06:12.791Z,4.66
2022-11-30T04:08:40.077Z,4.74
2022-11-30T04:11:07.898Z,4.75
2022-11-30T04:13:36.169Z,4.76
2022-11-30T04:16:03.872Z,4.80
2022-11-30T04:18:32.715Z,4.82
2022-11-30T04:21:00.979Z,4.96
2022-11-30T04:23:33.280Z,4.89
2022-11-30T04:26:04.038Z,4.88
2022-11-30T04:28:31.252Z,4.94
2022-11-30T04:31:00.403Z,4.96
2022-11-30T04:33:28.871Z,4.97
2022-11-30T04:36:00.911Z,5.00
2022-11-30T04:38:28.757Z,5.10
2022-11-30T04:40:56.169Z,5.22
2022-11-30T04:43:23.564Z,5.45
2022-11-30T04:45:50.635Z,5.58
2022-11-30T04:48:18.886Z,5.59
2022-11-30T04:50:45.634Z,5.60
2022-11-30T04:53:12.574Z,5.65
2022-11-30T04:55:39.514Z,5.65
2022-11-30T04:58:07.072Z,5.70
2022-11-30T05:00:34.026Z,5.68
2022-11-30T05:03:00.747Z,5.62
2022-11-30T05:05:27.827Z,5.61
2022-11-30T05:07:59.845Z,5.65
2022-11-30T05:10:28.151Z,5.62
2022-11-30T05:12:54.964Z,5.63
2022-11-30T05:15:22.379Z,5.64
2022-11-30T05:17:49.062Z,5.69
2022-11-30T05:20:15.859Z,5.69
2022-11-30T05:22:42.680Z,5.70
2022-11-30T05:25:09.743Z,5.67
2022-11-30T05:27:38.504Z,5.65
2022-11-30T05:30:07.192Z,5.67
2022-11-30T05:32:33.965Z,5.64
2022-11-30T05:35:00.674Z,5.72
2022-11-30T05:37:27.399Z,5.73
2022-11-30T05:39:54.109Z,5.70
2022-11-30T05:42:21.473Z,5.64
2022-11-30T05:44:48.508Z,5.63
2022-11-30T05:47:16.031Z,5.58
2022-11-30T05:49:42.961Z,5.59
2022-11-30T05:52:09.635Z,5.53
2022-11-30T05:54:36.432Z,5.53
2022-11-30T05:57:03.336Z,5.58
2022-11-30T05:59:30.094Z,5.62
2022-11-30T06:01:56.992Z,5.63
2022-11-30T06:04:23.846Z,5.71
2022-11-30T06:06:52.283Z,5.77
2022-11-30T06:09:18.997Z,5.79
2022-11-30T06:11:45.711Z,5.80
2022-11-30T06:14:12.369Z,5.79
2022-11-30T06:16:39.937Z,5.78
2022-11-30T06:19:07.071Z,5.80
2022-11-30T06:21:33.823Z,5.85
2022-11-30T06:24:00.749Z,5.86
2022-11-30T06:26:27.416Z,5.88
2022-11-30T06:28:54.077Z,5.84
2022-11-30T06:31:20.854Z,5.79
2022-11-30T06:33:47.521Z,5.77
2022-11-30T06:36:14.224Z,5.78
2022-11-30T06:38:40.865Z,5.79
2022-11-30T06:41:10.592Z,5.79
2022-11-30T06:43:38.853Z,5.81
2022-11-30T06:46:07.121Z,5.81
2022-11-30T06:48:34.896Z,5.78
2022-11-30T06:51:04.533Z,5.79
2022-11-30T06:53:31.315Z,5.79
2022-11-30T06:55:57.988Z,5.82
2022-11-30T06:58:24.803Z,5.81
2022-11-30T07:00:51.707Z,5.84
2022-11-30T07:03:18.539Z,5.84
2022-11-30T07:05:46.274Z,5.79
2022-11-30T07:08:15.366Z,5.81
2022-11-30T07:10:44.657Z,5.86
2022-11-30T07:13:13.703Z,5.93
2022-11-30T07:15:41.748Z,5.96
2022-11-30T07:18:09.288Z,5.96
2022-11-30T07:20:36.930Z,5.87
2022-11-30T07:23:22.268Z,5.85
2022-11-30T07:26:06.648Z,5.84
2022-11-30T07:28:46.803Z,5.84
2022-11-30T07:31:39.658Z,5.83
2022-11-30T07:34:09.503Z,5.80
2022-11-30T07:36:36.550Z,5.80
2022-11-30T07:39:04.524Z,5.81
2022-11-30T07:41:31.260Z,5.76
2022-11-30T07:44:00.183Z,5.76
2022-11-30T07:46:26.861Z,5.75
2022-11-30T07:48:53.540Z,5.78
2022-11-30T07:51:22.137Z,5.77
2022-11-30T07:53:49.466Z,5.77
2022-11-30T07:56:18.624Z,5.74
2022-11-30T07:58:45.367Z,5.76
2022-11-30T08:01:23.199Z,5.71
2022-11-30T08:03:51.281Z,5.70
2022-11-30T08:06:20.957Z,5.67
2022-11-30T08:08:49.995Z,5.68
2022-11-30T08:11:19.063Z,5.65
2022-11-30T08:13:45.989Z,5.65
2022-11-30T08:16:15.619Z,5.68
2022-11-30T08:18:42.850Z,5.71
2022-11-30T08:21:11.341Z,5.70
2022-11-30T08:23:43.362Z,5.64
2022-11-30T08:26:10.137Z,5.67
2022-11-30T08:28:37.053Z,5.67
2022-11-30T08:31:09.070Z,5.68
2022-11-30T08:33:37.205Z,5.76
2022-11-30T08:36:10.047Z,5.84
2022-11-30T08:38:37.710Z,5.90
2022-11-30T08:41:06.316Z,5.87
2022-11-30T08:43:33.636Z,5.85
2022-11-30T08:46:11.385Z,5.85
2022-11-30T08:48:48.699Z,5.81
2022-11-30T08:51:17.540Z,5.81
2022-11-30T08:53:44.539Z,5.80
2022-11-30T08:56:14.904Z,5.79
2022-11-30T08:58:41.923Z,5.76
2022-11-30T09:01:16.902Z,5.75
2022-11-30T09:03:45.217Z,5.69
2022-11-30T09:06:17.792Z,5.67
2022-11-30T09:08:47.794Z,5.63
2022-11-30T09:11:41.518Z,5.63
2022-11-30T09:14:10.049Z,5.60
2022-11-30T09:16:36.801Z,5.61
2022-11-30T09:19:03.819Z,5.63
2022-11-30T09:21:31.754Z,5.68
2022-11-30T09:23:58.491Z,5.71
2022-11-30T09:26:25.810Z,5.73
2022-11-30T09:28:54.169Z,5.80
2022-11-30T09:31:23.716Z,5.82
2022-11-30T09:33:51.436Z,5.86
2022-11-30T09:36:21.344Z,5.89
2022-11-30T09:38:49.196Z,5.91
2022-11-30T09:41:40.615Z,5.93
2022-11-30T09:44:25.511Z,6.00
2022-11-30T09:47:19.259Z,6.07
2022-11-30T09:49:47.737Z,6.11
2022-11-30T09:52:37.274Z,6.13
2022-11-30T09:55:10.666Z,6.21
2022-11-30T09:57:47.505Z,6.19
2022-11-30T10:00:17.967Z,6.23
2022-11-30T10:02:45.852Z,6.26
2022-11-30T10:05:13.857Z,6.35
2022-11-30T10:08:00.287Z,6.37
2022-11-30T10:10:43.373Z,6.37
2022-11-30T10:13:31.958Z,6.43
2022-11-30T10:16:19.830Z,6.45
2022-11-30T10:19:20.515Z,6.56
2022-11-30T10:21:50.328Z,6.61
2022-11-30T10:24:58.029Z,6.73
2022-11-30T10:27:50.891Z,6.78
2022-11-30T10:30:23.241Z,6.87
2022-11-30T10:32:59.845Z,7.03
2022-11-30T10:35:34.004Z,7.12
2022-11-30T10:38:13.271Z,7.21
2022-11-30T10:41:18.632Z,7.19
2022-11-30T10:43:50.800Z,7.21
2022-11-30T10:46:31.131Z,7.22
2022-11-30T10:49:03.057Z,7.18
2022-11-30T10:51:33.528Z,7.10
2022-11-30T10:54:05.836Z,7.10
2022-11-30T10:56:32.534Z,7.11
2022-11-30T10:59:11.883Z,7.00
2022-11-30T11:01:41.032Z,6.98
2022-11-30T11:04:19.787Z,6.95
2022-11-30T11:06:48.859Z,6.97
2022-11-30T11:09:32.434Z,6.98
2022-11-30T11:12:22.762Z,6.97
2022-11-30T11:15:11.043Z,6.95
2022-11-30T11:17:37.931Z,7.07
2022-11-30T11:20:28.972Z,7.06
2022-11-30T11:22:55.773Z,7.11
2022-11-30T11:25:31.178Z,7.25
2022-11-30T11:28:09.126Z,7.15
2022-11-30T11:30:37.787Z,7.12
2022-11-30T11:33:13.683Z,7.20
2022-11-30T11:35:41.998Z,7.24
2022-11-30T11:41:40.163Z,7.11
2022-11-30T11:44:10.090Z,7.08
2022-11-30T11:46:57.794Z,7.05
2022-11-30T11:49:28.617Z,7.04
2022-11-30T11:52:06.678Z,7.02
2022-11-30T11:54:41.147Z,7.02
2022-11-30T11:57:15.769Z,7.03
2022-11-30T11:59:58.927Z,7.06
2022-11-30T12:02:46.676Z,7.10
2022-11-30T12:05:17.900Z,7.06
2022-11-30T12:08:04.365Z,7.03
2022-11-30T12:10:51.856Z,7.03
2022-11-30T12:13:40.356Z,6.99
2022-11-30T12:16:17.019Z,7.05
2022-11-30T12:18:54.472Z,7.06
2022-11-30T12:21:33.163Z,7.06
2022-11-30T12:24:23.842Z,7.02
2022-11-30T12:26:59.497Z,7.00
2022-11-30T12:29:56.750Z,7.01
2022-11-30T12:32:39.883Z,7.07
2022-11-30T12:35:18.732Z,7.09
2022-11-30T12:37:48.466Z,7.08
2022-11-30T12:40:33.717Z,7.05
2022-11-30T12:43:15.561Z,7.00
2022-11-30T12:45:47.261Z,7.01
2022-11-30T12:51:03.173Z,6.96
2022-11-30T12:54:07.582Z,6.92
2022-11-30T12:56:56.421Z,6.94
2022-11-30T13:00:01.775Z,6.93
2022-11-30T13:02:59.562Z,6.91
2022-11-30T13:05:35.322Z,6.98
2022-11-30T13:08:20.884Z,6.99
2022-11-30T13:10:52.169Z,7.06
2022-11-30T13:13:25.537Z,7.02
2022-11-30T13:15:52.478Z,7.03
2022-11-30T13:18:22.248Z,7.06
2022-11-30T13:20:51.788Z,7.07
2022-11-30T13:23:38.802Z,7.00
2022-11-30T13:26:31.710Z,6.88
2022-11-30T13:28:59.546Z,6.88
2022-11-30T13:31:39.514Z,6.90
2022-11-30T13:34:24.543Z,6.87
2022-11-30T13:37:00.696Z,6.81
2022-11-30T13:39:29.236Z,6.82
2022-11-30T13:42:01.988Z,6.82
2022-11-30T13:44:41.113Z,6.81
2022-11-30T13:47:29.446Z,6.84
2022-11-30T13:49:59.648Z,6.85
2022-11-30T13:53:05.044Z,6.85
2022-11-30T13:55:49.927Z,6.75
2022-11-30T13:58:19.864Z,6.78
2022-11-30T14:04:22.892Z,6.69
2022-11-30T14:06:55.373Z,6.70
2022-11-30T14:09:37.418Z,6.66
2022-11-30T14:12:36.927Z,6.64
2022-11-30T14:15:31.577Z,6.62
2022-11-30T14:17:59.139Z,6.61
2022-11-30T14:20:37.614Z,6.64
2022-11-30T14:23:12.064Z,6.63
2022-11-30T14:25:46.100Z,6.58
2022-11-30T14:28:17.902Z,6.59
2022-11-30T14:30:45.588Z,6.52
2022-11-30T14:33:35.700Z,6.49
2022-11-30T14:36:03.763Z,6.44
2022-11-30T14:38:31.611Z,6.43
2022-11-30T14:40:58.927Z,6.39
2022-11-30T14:43:26.296Z,6.33
2022-11-30T14:46:05.623Z,6.30
2022-11-30T14:48:33.738Z,6.27
2022-11-30T14:51:03.761Z,6.27
2022-11-30T14:53:47.377Z,6.22
2022-11-30T14:56:27.472Z,6.18
2022-11-30T14:59:16.333Z,6.19
2022-11-30T15:01:43.494Z,6.13
2022-11-30T15:04:14.917Z,6.12
2022-11-30T15:06:45.092Z,6.14
2022-11-30T15:09:22.153Z,6.15
2022-11-30T15:11:51.126Z,6.16
2022-11-30T15:14:18.159Z,6.12
2022-11-30T15:16:49.770Z,6.12
2022-11-30T15:19:34.421Z,6.09
2022-11-30T15:22:01.437Z,6.05
2022-11-30T15:24:29.820Z,6.05
2022-11-30T15:27:23.121Z,6.10
2022-11-30T15:30:01.303Z,6.09
2022-11-30T15:32:29.616Z,6.06
2022-11-30T15:35:03.306Z,6.06
2022-11-30T15:37:40.419Z,6.08
2022-11-30T15:40:10.785Z,6.05
2022-11-30T15:42:43.613Z,6.01
2022-11-30T15:45:25.212Z,5.97
2022-11-30T15:47:53.471Z,6.04
2022-11-30T15:50:29.272Z,6.02
2022-11-30T15:53:01.762Z,6.01
2022-11-30T15:55:47.436Z,6.00
2022-11-30T15:58:29.227Z,6.02
2022-11-30T16:01:24.897Z,6.06
2022-11-30T16:04:01.012Z,6.05
2022-11-30T16:06:53.723Z,6.04
2022-11-30T16:09:32.581Z,6.06
2022-11-30T16:12:02.371Z,6.00
2022-11-30T16:14:29.224Z,6.05
2022-11-30T16:16:56.407Z,6.07
2022-11-30T16:19:23.171Z,6.08
2022-11-30T16:21:51.550Z,6.11
2022-11-30T16:24:18.259Z,6.14
2022-11-30T16:26:52.460Z,6.16
2022-11-30T16:29:20.135Z,6.19
2022-11-30T16:31:46.944Z,6.20
2022-11-30T16:34:13.711Z,6.17
2022-11-30T16:36:40.382Z,6.22
2022-11-30T16:39:09.317Z,6.21
2022-11-30T16:41:36.237Z,6.20
2022-11-30T16:44:02.962Z,6.21
2022-11-30T16:46:31.462Z,6.27
2022-11-30T16:48:58.299Z,6.34
2022-11-30T16:51:30.806Z,6.37
2022-11-30T16:53:58.398Z,6.38
2022-11-30T16:56:25.610Z,6.39
2022-11-30T16:58:52.614Z,6.43
2022-11-30T17:01:34.717Z,6.42
2022-11-30T17:04:12.553Z,6.44
2022-11-30T17:06:39.365Z,6.43
2022-11-30T17:09:09.406Z,6.45
2022-11-30T17:11:37.840Z,6.46
2022-11-30T17:14:05.068Z,6.48
2022-11-30T17:16:32.697Z,6.50
2022-11-30T17:18:59.480Z,6.51
2022-11-30T17:21:33.154Z,6.53
2022-11-30T17:24:00.246Z,6.54
2022-11-30T17:26:27.771Z,6.54
2022-11-30T17:28:54.610Z,6.58
2022-11-30T17:31:21.873Z,6.60
2022-11-30T17:33:48.954Z,6.62
2022-11-30T17:36:17.199Z,6.62
2022-11-30T17:38:44.271Z,6.67
2022-11-30T17:41:19.115Z,6.71
2022-11-30T17:43:47.521Z,6.65
2022-11-30T17:46:17.234Z,6.64
2022-11-30T17:48:44.552Z,6.62
2022-11-30T17:51:12.221Z,6.65
2022-11-30T17:53:40.438Z,6.66
2022-11-30T17:56:12.439Z,6.67
2022-11-30T17:58:43.824Z,6.63
2022-11-30T18:01:23.179Z,6.63
2022-11-30T18:03:52.443Z,6.70
2022-11-30T18:06:20.175Z,6.67
2022-11-30T18:08:46.937Z,6.66
2022-11-30T18:11:22.581Z,6.63
2022-11-30T18:13:51.769Z,6.63
2022-11-30T18:16:22.051Z,6.65
2022-11-30T18:18:49.194Z,6.65
2022-11-30T18:21:21.330Z,6.61
2022-11-30T18:23:48.986Z,6.59
2022-11-30T18:26:18.871Z,6.59
2022-11-30T18:28:46.636Z,6.59
2022-11-30T18:31:14.152Z,6.63
2022-11-30T18:33:41.040Z,6.62
2022-11-30T18:36:08.145Z,6.74
2022-11-30T18:38:38.095Z,6.64
2022-11-30T18:41:06.671Z,6.68
2022-11-30T18:43:34.826Z,6.73
2022-11-30T18:46:09.854Z,6.69
2022-11-30T18:48:37.854Z,6.71
2022-11-30T18:51:18.624Z,6.69
2022-11-30T18:53:46.167Z,6.70
2022-11-30T18:56:18.762Z,6.72
2022-11-30T18:58:46.317Z,6.75
2022-11-30T19:01:18.657Z,6.77
2022-11-30T19:04:03.013Z,6.74
2022-11-30T19:06:32.654Z,6.72
2022-11-30T19:09:08.524Z,6.72
2022-11-30T19:11:36.590Z,6.73
2022-11-30T19:14:04.058Z,6.72
2022-11-30T19:16:34.617Z,6.71
2022-11-30T19:19:04.964Z,6.69
2022-11-30T19:21:32.175Z,6.72
2022-11-30T19:23:59.712Z,6.70
2022-11-30T19:26:28.490Z,6.70
2022-11-30T19:28:57.007Z,6.68
2022-11-30T19:31:24.757Z,6.65
2022-11-30T19:33:53.867Z,6.65
2022-11-30T19:36:23.435Z,6.64
2022-11-30T19:38:51.506Z,6.64
2022-11-30T19:41:19.797Z,6.62
2022-11-30T19:43:53.956Z,6.60
2022-11-30T19:46:23.000Z,6.59
2022-11-30T19:48:55.005Z,6.60
2022-11-30T19:51:21.870Z,6.60
2022-11-30T19:53:48.633Z,6.62
2022-11-30T19:56:17.587Z,6.57
2022-11-30T19:58:45.875Z,6.61
2022-11-30T20:01:14.047Z,6.59
2022-11-30T20:03:41.036Z,6.60
2022-11-30T20:06:08.053Z,6.60
2022-11-30T20:08:34.755Z,6.62
2022-11-30T20:11:06.036Z,6.62
2022-11-30T20:13:32.812Z,6.59
2022-11-30T20:15:59.560Z,6.61
2022-11-30T20:18:26.338Z,6.56
2022-11-30T20:20:53.004Z,6.58
2022-11-30T20:23:19.767Z,6.61
2022-11-30T20:25:46.447Z,6.62
2022-11-30T20:28:13.196Z,6.56
2022-11-30T20:30:40.058Z,6.57
2022-11-30T20:33:06.890Z,6.53
2022-11-30T20:35:35.227Z,6.54
2022-11-30T20:38:01.952Z,6.50
2022-11-30T20:40:28.644Z,6.46
2022-11-30T20:42:55.386Z,6.48
2022-11-30T20:45:22.070Z,6.44
2022-11-30T20:47:48.943Z,6.46
2022-11-30T20:50:16.148Z,6.47
2022-11-30T20:52:42.915Z,6.46
2022-11-30T20:55:09.814Z,6.45
2022-11-30T20:57:36.557Z,6.44
2022-11-30T21:00:07.627Z,6.41
2022-11-30T21:02:38.550Z,6.41
2022-11-30T21:05:05.863Z,6.37
2022-11-30T21:07:32.697Z,6.36
2022-11-30T21:10:00.321Z,6.37
2022-11-30T21:12:27.162Z,6.38
2022-11-30T21:14:53.911Z,6.36
2022-11-30T21:17:20.724Z,6.37
2022-11-30T21:19:47.471Z,6.36
2022-11-30T21:22:14.227Z,6.36
2022-11-30T21:24:40.896Z,6.39
2022-11-30T21:27:07.654Z,6.39
2022-11-30T21:29:34.335Z,6.33
2022-11-30T21:32:01.083Z,6.30
2022-11-30T21:34:27.935Z,6.31
2022-11-30T21:36:54.733Z,6.31
2022-11-30T21:39:21.615Z,6.32
2022-11-30T21:41:48.397Z,6.29
2022-11-30T21:44:16.616Z,6.30
2022-11-30T21:46:45.656Z,6.22
2022-11-30T21:49:13.745Z,6.26
2022-11-30T21:51:40.683Z,6.25
2022-11-30T21:54:11.473Z,6.24
2022-11-30T21:56:39.848Z,6.23
2022-11-30T21:59:08.791Z,6.26
2022-11-30T22:01:38.136Z,6.26
2022-11-30T22:04:07.407Z,6.27
2022-11-30T22:06:36.092Z,6.26
2022-11-30T22:09:09.150Z,6.29
2022-11-30T22:11:39.024Z,6.32
2022-11-30T22:14:07.574Z,6.32
2022-11-30T22:16:36.456Z,6.32
2022-11-30T22:19:05.087Z,6.34
2022-11-30T22:21:32.595Z,6.36
2022-11-30T22:24:05.412Z,6.37
2022-11-30T22:26:34.841Z,6.38
2022-11-30T22:29:05.821Z,6.37
2022-11-30T22:31:35.552Z,6.38
2022-11-30T22:34:02.885Z,6.39
2022-11-30T22:36:31.284Z,6.40
2022-11-30T22:39:00.786Z,6.34
2022-11-30T22:41:28.570Z,6.32
2022-11-30T22:43:56.625Z,6.28
2022-11-30T22:46:29.338Z,6.24
2022-11-30T22:48:59.225Z,6.27
2022-11-30T22:51:28.142Z,6.31
2022-11-30T22:53:55.833Z,6.31
2022-11-30T22:56:26.095Z,6.32
2022-11-30T22:58:55.114Z,6.36
2022-11-30T23:01:25.063Z,6.38
2022-11-30T23:03:56.308Z,6.39
2022-11-30T23:06:23.789Z,6.41
2022-11-30T23:08:51.903Z,6.38
2022-11-30T23:11:21.678Z,6.34
2022-11-30T23:13:48.671Z,6.33
2022-11-30T23:16:16.163Z,6.32
2022-11-30T23:18:45.569Z,6.33
2022-11-30T23:21:17.859Z,6.35
2022-11-30T23:23:45.433Z,6.32
2022-11-30T23:26:21.092Z,6.29
2022-11-30T23:28:49.945Z,6.21
2022-11-30T23:31:32.452Z,6.18
2022-11-30T23:34:02.638Z,6.14
2022-11-30T23:36:29.321Z,6.17
2022-11-30T23:38:58.600Z,6.17
2022-11-30T23:41:25.975Z,6.16
2022-11-30T23:43:53.439Z,6.19
2022-11-30T23:46:20.415Z,6.23
2022-11-30T23:48:47.483Z,6.20
2022-11-30T23:51:14.194Z,6.22
2022-11-30T23:53:40.956Z,6.26
2022-11-30T23:56:11.754Z,6.27
2022-11-30T23:58:39.725Z,6.26
